createdAt,value
2023-05-21T00:01:36.079Z,19.01
2023-05-21T00:04:08.460Z,19.00
2023-05-21T00:06:40.466Z,19.00
2023-05-21T00:09:13.067Z,18.97
2023-05-21T00:11:45.048Z,18.92
2023-05-21T00:14:17.400Z,18.88
2023-05-21T00:16:49.426Z,18.87
2023-05-21T00:19:21.612Z,18.85
2023-05-21T00:21:54.829Z,18.74
2023-05-21T00:24:26.722Z,18.77
2023-05-21T00:26:58.733Z,18.76
2023-05-21T00:29:30.982Z,18.74
2023-05-21T00:32:03.174Z,18.54
2023-05-21T00:34:35.196Z,18.70
2023-05-21T00:37:10.030Z,18.66
2023-05-21T00:39:42.453Z,18.62
2023-05-21T00:42:18.241Z,18.61
2023-05-21T00:44:50.168Z,18.54
2023-05-21T00:47:22.487Z,18.51
2023-05-21T00:49:55.231Z,18.51
2023-05-21T00:52:27.541Z,18.48
2023-05-21T00:54:59.547Z,18.47
2023-05-21T00:57:33.393Z,18.36
2023-05-21T01:00:08.864Z,18.37
2023-05-21T01:02:41.240Z,18.38
2023-05-21T01:05:15.458Z,18.35
2023-05-21T01:07:48.434Z,18.37
2023-05-21T01:10:20.578Z,18.33
2023-05-21T01:12:57.482Z,18.31
2023-05-21T01:15:29.910Z,18.29
2023-05-21T01:18:02.246Z,18.28
2023-05-21T01:20:34.755Z,18.22
2023-05-21T01:23:06.978Z,18.23
2023-05-21T01:25:39.060Z,18.13
2023-05-21T01:28:11.243Z,18.19
2023-05-21T01:30:44.321Z,18.12
2023-05-21T01:33:47.619Z,18.09
2023-05-21T01:36:28.471Z,18.10
2023-05-21T01:39:12.249Z,18.09
2023-05-21T01:41:46.681Z,18.08
2023-05-21T01:44:19.974Z,18.04
2023-05-21T01:46:54.641Z,18.03
2023-05-21T01:49:26.978Z,17.97
2023-05-21T01:51:59.054Z,18.02
2023-05-21T01:54:31.103Z,17.99
2023-05-21T01:57:03.885Z,17.99
2023-05-21T01:59:36.516Z,17.96
2023-05-21T02:02:08.701Z,17.99
2023-05-21T02:04:44.258Z,17.98
2023-05-21T02:07:16.230Z,18.01
2023-05-21T02:09:48.225Z,17.99
2023-05-21T02:12:20.280Z,17.99
2023-05-21T02:14:52.196Z,17.95
2023-05-21T02:17:24.600Z,17.94
2023-05-21T02:19:57.084Z,17.90
2023-05-21T02:22:29.068Z,17.91
2023-05-21T02:25:01.164Z,17.92
2023-05-21T02:27:35.188Z,17.76
2023-05-21T02:30:10.974Z,17.90
2023-05-21T02:32:43.791Z,17.89
2023-05-21T02:35:15.952Z,17.90
2023-05-21T02:37:49.001Z,17.91
2023-05-21T02:40:20.981Z,17.91
2023-05-21T02:42:52.989Z,17.92
2023-05-21T02:45:25.043Z,17.93
2023-05-21T02:47:57.063Z,17.94
2023-05-21T02:50:29.136Z,17.94
2023-05-21T02:53:01.212Z,17.87
2023-05-21T02:55:33.330Z,17.94
2023-05-21T02:58:05.445Z,17.91
2023-05-21T03:00:37.469Z,17.89
2023-05-21T03:03:09.877Z,17.88
2023-05-21T03:05:41.947Z,17.87
2023-05-21T03:08:13.868Z,17.87
2023-05-21T03:10:45.849Z,17.84
2023-05-21T03:13:17.886Z,17.85
2023-05-21T03:15:49.934Z,17.86
2023-05-21T03:18:22.996Z,17.84
2023-05-21T03:20:55.022Z,17.81
2023-05-21T03:23:27.009Z,17.81
2023-05-21T03:25:59.003Z,17.75
2023-05-21T03:28:31.981Z,17.82
2023-05-21T03:31:04.150Z,17.80
2023-05-21T03:33:36.122Z,17.79
2023-05-21T03:36:08.632Z,17.78
2023-05-21T03:38:40.689Z,17.74
2023-05-21T03:41:13.290Z,17.77
2023-05-21T03:43:45.687Z,17.79
2023-05-21T03:46:17.760Z,18.04
2023-05-21T03:48:50.119Z,17.82
2023-05-21T03:51:22.863Z,17.79
2023-05-21T03:53:54.881Z,17.79
2023-05-21T03:56:26.940Z,17.78
2023-05-21T03:58:58.893Z,17.77
2023-05-21T04:01:32.929Z,17.77
2023-05-21T04:04:05.794Z,17.76
2023-05-21T04:06:38.325Z,17.75
2023-05-21T04:09:10.374Z,17.72
2023-05-21T04:11:42.342Z,17.76
2023-05-21T04:14:14.524Z,17.74
2023-05-21T04:16:49.176Z,17.73
2023-05-21T04:19:21.343Z,17.72
2023-05-21T04:21:53.372Z,17.72
2023-05-21T04:24:25.595Z,17.68
2023-05-21T04:27:01.263Z,17.72
2023-05-21T04:29:33.268Z,17.70
2023-05-21T04:32:06.215Z,17.72
2023-05-21T04:34:39.703Z,17.70
2023-05-21T04:37:12.092Z,17.73
2023-05-21T04:39:44.814Z,17.73
2023-05-21T04:42:16.937Z,17.76
2023-05-21T04:44:48.981Z,17.71
2023-05-21T04:47:21.195Z,17.74
2023-05-21T04:49:53.603Z,17.74
2023-05-21T04:52:26.904Z,17.79
2023-05-21T04:54:58.861Z,17.79
2023-05-21T04:57:30.854Z,17.71
2023-05-21T05:00:04.148Z,17.79
2023-05-21T05:02:36.092Z,17.73
2023-05-21T05:05:08.775Z,17.74
2023-05-21T05:07:40.881Z,17.85
2023-05-21T05:10:12.827Z,17.86
2023-05-21T05:12:44.785Z,17.70
2023-05-21T05:15:17.004Z,17.90
2023-05-21T05:17:50.591Z,17.89
2023-05-21T05:20:22.637Z,17.91
2023-05-21T05:22:54.561Z,17.94
2023-05-21T05:25:27.328Z,17.95
2023-05-21T05:27:59.264Z,17.94
2023-05-21T05:30:31.286Z,17.98
2023-05-21T05:33:03.276Z,18.03
2023-05-21T05:35:35.479Z,18.07
2023-05-21T05:38:08.953Z,18.10
2023-05-21T05:40:41.002Z,18.15
2023-05-21T05:43:12.992Z,18.20
2023-05-21T05:45:44.962Z,18.23
2023-05-21T05:48:16.922Z,18.28
2023-05-21T05:50:49.072Z,18.31
2023-05-21T05:53:21.568Z,18.28
2023-05-21T05:55:53.817Z,18.34
2023-05-21T05:58:26.092Z,18.37
2023-05-21T06:00:58.177Z,18.42
2023-05-21T06:03:31.080Z,18.45
2023-05-21T06:06:03.310Z,18.50
2023-05-21T06:08:38.072Z,18.58
2023-05-21T06:11:11.414Z,18.65
2023-05-21T06:13:43.597Z,18.70
2023-05-21T06:16:16.014Z,18.69
2023-05-21T06:18:48.161Z,18.46
2023-05-21T06:21:20.135Z,18.69
2023-05-21T06:23:52.245Z,18.77
2023-05-21T06:26:24.236Z,18.81
2023-05-21T06:28:56.659Z,18.83
2023-05-21T06:31:28.796Z,18.91
2023-05-21T06:34:01.412Z,18.98
2023-05-21T06:36:33.608Z,18.85
2023-05-21T06:39:05.625Z,19.11
2023-05-21T06:41:37.576Z,19.19
2023-05-21T06:44:10.042Z,19.29
2023-05-21T06:46:42.818Z,19.36
2023-05-21T06:49:15.083Z,19.37
2023-05-21T06:51:47.294Z,19.43
2023-05-21T06:54:19.255Z,19.48
2023-05-21T06:56:51.228Z,19.52
2023-05-21T06:59:23.169Z,19.59
2023-05-21T07:01:55.230Z,19.61
2023-05-21T07:04:27.366Z,19.67
2023-05-21T07:06:59.350Z,19.76
2023-05-21T07:09:31.591Z,19.87
2023-05-21T07:12:03.762Z,20.02
2023-05-21T07:14:35.800Z,20.03
2023-05-21T07:17:07.871Z,20.18
2023-05-21T07:19:39.854Z,20.34
2023-05-21T07:22:12.698Z,20.46
2023-05-21T07:24:44.773Z,20.51
2023-05-21T07:27:25.376Z,20.54
2023-05-21T07:29:57.952Z,20.60
2023-05-21T07:32:30.023Z,20.70
2023-05-21T07:35:02.146Z,20.77
2023-05-21T07:37:34.350Z,20.94
2023-05-21T07:40:08.313Z,21.02
2023-05-21T07:42:40.960Z,20.92
2023-05-21T07:45:12.914Z,21.13
2023-05-21T07:47:46.807Z,21.17
2023-05-21T07:50:19.126Z,21.22
2023-05-21T07:52:51.276Z,21.30
2023-05-21T07:55:23.502Z,21.41
2023-05-21T07:57:56.379Z,21.39
2023-05-21T08:00:28.392Z,21.47
2023-05-21T08:03:01.083Z,21.63
2023-05-21T08:05:33.112Z,21.77
2023-05-21T08:08:05.744Z,21.91
2023-05-21T08:10:37.946Z,22.09
2023-05-21T08:13:15.002Z,22.15
2023-05-21T08:15:49.066Z,22.06
2023-05-21T08:18:24.057Z,22.20
2023-05-21T08:20:56.777Z,22.26
2023-05-21T08:23:28.732Z,22.31
2023-05-21T08:26:00.742Z,22.40
2023-05-21T08:28:32.903Z,22.39
2023-05-21T08:31:05.195Z,22.35
2023-05-21T08:33:38.455Z,22.47
2023-05-21T08:36:10.567Z,22.53
2023-05-21T08:38:42.499Z,22.69
2023-05-21T08:41:17.613Z,22.91
2023-05-21T08:43:57.695Z,23.00
2023-05-21T08:46:36.263Z,23.10
2023-05-21T08:49:14.075Z,23.17
2023-05-21T08:51:48.227Z,23.21
2023-05-21T08:54:20.361Z,23.28
2023-05-21T08:56:53.603Z,23.36
2023-05-21T08:59:27.196Z,23.51
2023-05-21T09:01:59.994Z,23.65
2023-05-21T09:04:33.944Z,23.72
2023-05-21T09:07:08.076Z,23.72
2023-05-21T09:09:55.149Z,23.88
2023-05-21T09:12:28.558Z,24.01
2023-05-21T09:15:02.213Z,24.24
2023-05-21T09:17:34.318Z,24.40
2023-05-21T09:20:15.284Z,24.25
2023-05-21T09:22:50.522Z,24.21
2023-05-21T09:25:25.429Z,24.25
2023-05-21T09:27:58.278Z,24.26
2023-05-21T09:30:32.495Z,24.21
2023-05-21T09:33:06.144Z,24.14
2023-05-21T09:35:44.924Z,24.17
2023-05-21T09:38:17.402Z,24.12
2023-05-21T09:40:49.508Z,24.22
2023-05-21T09:43:22.055Z,24.29
2023-05-21T09:45:57.775Z,24.44
2023-05-21T09:48:42.112Z,24.44
2023-05-21T09:51:16.067Z,24.58
2023-05-21T09:54:01.184Z,24.52
2023-05-21T09:56:34.641Z,24.43
2023-05-21T09:59:07.502Z,24.48
2023-05-21T10:01:39.905Z,24.52
2023-05-21T10:04:12.978Z,24.42
2023-05-21T10:06:47.914Z,24.55
2023-05-21T10:09:21.439Z,24.79
2023-05-21T10:11:55.011Z,24.94
2023-05-21T10:14:32.039Z,25.19
2023-05-21T10:17:06.796Z,25.48
2023-05-21T10:19:41.263Z,25.48
2023-05-21T10:22:14.194Z,25.49
2023-05-21T10:24:46.745Z,25.51
2023-05-21T10:27:19.824Z,25.58
2023-05-21T10:29:56.537Z,25.83
2023-05-21T10:32:28.932Z,25.95
2023-05-21T10:35:04.731Z,26.07
2023-05-21T10:37:37.608Z,26.21
2023-05-21T10:40:10.303Z,26.25
2023-05-21T10:43:35.941Z,26.10
2023-05-21T10:46:26.220Z,26.03
2023-05-21T10:49:38.766Z,26.04
2023-05-21T10:52:44.564Z,26.21
2023-05-21T10:55:53.382Z,26.39
2023-05-21T10:59:00.922Z,26.28
2023-05-21T11:01:37.637Z,26.36
2023-05-21T11:04:11.014Z,26.47
2023-05-21T11:06:51.135Z,26.57
2023-05-21T11:09:23.479Z,26.76
2023-05-21T11:12:00.140Z,26.99
2023-05-21T11:14:56.264Z,27.07
2023-05-21T11:17:40.189Z,26.99
2023-05-21T11:20:16.862Z,27.03
2023-05-21T11:22:49.884Z,27.09
2023-05-21T11:25:21.990Z,27.13
2023-05-21T11:27:54.229Z,27.21
2023-05-21T11:30:26.168Z,27.17
2023-05-21T11:33:18.512Z,27.11
2023-05-21T11:35:50.384Z,27.09
2023-05-21T11:38:22.332Z,27.09
2023-05-21T11:40:55.590Z,26.87
2023-05-21T11:43:27.717Z,27.08
2023-05-21T11:46:00.044Z,27.11
2023-05-21T11:48:33.014Z,27.14
2023-05-21T11:51:06.138Z,27.22
2023-05-21T11:53:44.339Z,27.33
2023-05-21T11:56:18.426Z,27.31
2023-05-21T11:58:50.798Z,27.32
2023-05-21T12:01:26.568Z,27.44
2023-05-21T12:03:58.582Z,27.46
2023-05-21T12:06:31.586Z,27.60
2023-05-21T12:09:04.711Z,27.64
2023-05-21T12:11:41.967Z,27.71
2023-05-21T12:14:14.776Z,27.67
2023-05-21T12:16:46.857Z,27.58
2023-05-21T12:19:19.332Z,27.43
2023-05-21T12:21:51.488Z,27.45
2023-05-21T12:24:23.625Z,27.48
2023-05-21T12:26:59.350Z,27.56
2023-05-21T12:29:32.651Z,27.73
2023-05-21T12:32:08.928Z,27.89
2023-05-21T12:34:51.461Z,27.92
2023-05-21T12:37:32.538Z,27.79
2023-05-21T12:40:07.887Z,27.86
2023-05-21T12:42:40.248Z,27.79
2023-05-21T12:45:12.932Z,27.56
2023-05-21T12:47:50.448Z,27.37
2023-05-21T12:50:22.803Z,27.18
2023-05-21T12:52:58.706Z,27.26
2023-05-21T12:55:31.778Z,27.39
2023-05-21T12:58:08.320Z,27.54
2023-05-21T13:00:43.720Z,27.53
2023-05-21T13:03:16.548Z,27.64
2023-05-21T13:05:48.582Z,27.79
2023-05-21T13:08:20.735Z,28.07
2023-05-21T13:10:52.767Z,28.27
2023-05-21T13:13:24.762Z,28.36
2023-05-21T13:15:57.226Z,28.40
2023-05-21T13:18:29.239Z,28.41
2023-05-21T13:21:01.230Z,28.45
2023-05-21T13:23:33.192Z,28.32
2023-05-21T13:26:05.241Z,28.17
2023-05-21T13:28:37.194Z,28.21
2023-05-21T13:31:09.890Z,28.39
2023-05-21T13:33:41.969Z,28.52
2023-05-21T13:36:14.124Z,28.68
2023-05-21T13:38:46.096Z,28.68
2023-05-21T13:41:18.114Z,28.57
2023-05-21T13:43:50.121Z,28.58
2023-05-21T13:46:22.157Z,28.65
2023-05-21T13:48:54.254Z,28.59
2023-05-21T13:54:03.836Z,28.56
2023-05-21T13:56:35.880Z,28.52
2023-05-21T13:59:07.854Z,28.56
2023-05-21T14:01:39.842Z,28.74
2023-05-21T14:04:12.458Z,28.95
2023-05-21T14:06:44.984Z,29.00
2023-05-21T14:09:17.010Z,28.80
2023-05-21T14:11:49.227Z,28.63
2023-05-21T14:14:21.655Z,28.65
2023-05-21T14:16:53.783Z,28.73
2023-05-21T14:19:26.226Z,28.82
2023-05-21T14:21:59.931Z,28.93
2023-05-21T14:24:31.933Z,28.76
2023-05-21T14:27:04.210Z,28.68
2023-05-21T14:29:36.238Z,28.53
2023-05-21T14:32:08.729Z,28.48
2023-05-21T14:34:41.325Z,28.52
2023-05-21T14:37:13.309Z,28.70
2023-05-21T14:39:45.428Z,28.85
2023-05-21T14:42:17.604Z,28.90
2023-05-21T14:44:49.655Z,28.78
2023-05-21T14:47:21.774Z,28.56
2023-05-21T14:49:53.857Z,28.57
2023-05-21T14:52:25.852Z,28.68
2023-05-21T14:54:57.849Z,28.77
2023-05-21T14:57:29.814Z,28.82
2023-05-21T15:00:01.915Z,28.90
2023-05-21T15:02:34.053Z,28.80
2023-05-21T15:05:06.832Z,28.62
2023-05-21T15:07:39.050Z,28.72
2023-05-21T15:10:11.450Z,28.86
2023-05-21T15:12:43.513Z,28.82
2023-05-21T15:15:17.107Z,28.65
2023-05-21T15:17:50.736Z,28.69
2023-05-21T15:20:23.320Z,28.74
2023-05-21T15:23:05.055Z,28.73
2023-05-21T15:25:47.449Z,28.76
2023-05-21T15:28:20.255Z,28.77
2023-05-21T15:30:52.347Z,28.70
2023-05-21T15:33:24.693Z,28.62
2023-05-21T15:35:56.767Z,28.44
2023-05-21T15:38:28.796Z,28.39
2023-05-21T15:41:01.400Z,28.39
2023-05-21T15:43:33.431Z,28.35
2023-05-21T15:46:05.511Z,28.25
2023-05-21T15:48:37.976Z,28.24
2023-05-21T15:51:09.953Z,28.22
2023-05-21T15:53:41.950Z,28.21
2023-05-21T15:56:14.034Z,28.27
2023-05-21T15:58:46.065Z,28.34
2023-05-21T16:01:18.595Z,28.43
2023-05-21T16:03:50.618Z,28.43
2023-05-21T16:06:23.043Z,28.43
2023-05-21T16:08:55.159Z,28.38
2023-05-21T16:11:27.678Z,28.40
2023-05-21T16:13:59.635Z,28.37
2023-05-21T16:16:31.642Z,28.25
2023-05-21T16:19:03.754Z,28.20
2023-05-21T16:21:35.806Z,28.26
2023-05-21T16:24:07.854Z,28.26
2023-05-21T16:26:39.871Z,28.16
2023-05-21T16:29:11.990Z,28.14
2023-05-21T16:31:44.168Z,28.12
2023-05-21T16:34:16.388Z,28.09
2023-05-21T16:36:48.343Z,28.12
2023-05-21T16:39:20.437Z,28.07
2023-05-21T16:41:54.010Z,27.94
2023-05-21T16:44:28.897Z,27.85
2023-05-21T16:47:02.029Z,27.86
2023-05-21T16:49:34.093Z,27.86
2023-05-21T16:52:06.554Z,27.84
2023-05-21T16:54:38.641Z,27.77
2023-05-21T16:57:10.616Z,27.62
2023-05-21T16:59:44.625Z,27.52
2023-05-21T17:02:16.887Z,27.48
2023-05-21T17:04:48.968Z,27.47
2023-05-21T17:07:20.984Z,27.41
2023-05-21T17:09:53.016Z,27.41
2023-05-21T17:12:25.054Z,27.38
2023-05-21T17:14:57.259Z,27.37
2023-05-21T17:17:29.295Z,27.19
2023-05-21T17:20:02.461Z,27.25
2023-05-21T17:22:34.472Z,27.23
2023-05-21T17:25:07.500Z,27.21
2023-05-21T17:27:39.645Z,27.14
2023-05-21T17:30:12.334Z,27.20
2023-05-21T17:32:44.413Z,27.20
2023-05-21T17:35:16.506Z,27.13
2023-05-21T17:37:48.516Z,27.06
2023-05-21T17:40:23.116Z,27.01
2023-05-21T17:42:56.053Z,27.09
2023-05-21T17:45:28.074Z,27.10
2023-05-21T17:48:00.692Z,27.04
2023-05-21T17:50:34.261Z,27.03
2023-05-21T17:53:06.520Z,26.90
2023-05-21T17:55:38.823Z,26.96
2023-05-21T17:58:10.988Z,26.97
2023-05-21T18:00:43.030Z,26.94
2023-05-21T18:03:15.133Z,26.94
2023-05-21T18:05:47.184Z,26.85
2023-05-21T18:08:19.266Z,26.82
2023-05-21T18:10:51.259Z,26.83
2023-05-21T18:13:23.347Z,26.81
2023-05-21T18:15:58.293Z,26.78
2023-05-21T18:18:30.296Z,26.76
2023-05-21T18:21:02.286Z,26.72
2023-05-21T18:23:34.325Z,26.68
2023-05-21T18:26:06.418Z,26.65
2023-05-21T18:28:38.372Z,26.64
2023-05-21T18:31:10.398Z,26.60
2023-05-21T18:33:42.357Z,26.59
2023-05-21T18:36:14.334Z,26.51
2023-05-21T18:38:46.505Z,26.49
2023-05-21T18:41:19.861Z,26.38
2023-05-21T18:43:51.853Z,26.42
2023-05-21T18:46:23.879Z,26.41
2023-05-21T18:48:56.432Z,26.37
2023-05-21T18:51:28.576Z,26.37
2023-05-21T18:54:00.594Z,26.35
2023-05-21T18:56:32.599Z,26.34
2023-05-21T18:59:04.698Z,26.31
2023-05-21T19:01:36.804Z,26.25
2023-05-21T19:04:09.384Z,26.18
2023-05-21T19:06:41.429Z,26.10
2023-05-21T19:09:13.443Z,26.03
2023-05-21T19:11:45.532Z,25.90
2023-05-21T19:14:17.625Z,25.89
2023-05-21T19:16:49.572Z,25.82
2023-05-21T19:19:21.774Z,25.64
2023-05-21T19:21:54.038Z,25.66
2023-05-21T19:24:26.211Z,25.63
2023-05-21T19:27:00.134Z,25.60
2023-05-21T19:29:32.263Z,25.54
2023-05-21T19:32:04.545Z,25.49
2023-05-21T19:34:36.699Z,25.43
2023-05-21T19:37:08.904Z,25.34
2023-05-21T19:39:43.528Z,25.29
2023-05-21T19:42:17.294Z,25.24
2023-05-21T19:44:49.274Z,25.19
2023-05-21T19:47:21.305Z,25.13
2023-05-21T19:49:53.317Z,25.05
2023-05-21T19:52:25.433Z,25.19
2023-05-21T19:55:04.424Z,24.99
2023-05-21T19:57:37.299Z,24.91
2023-05-21T20:00:10.414Z,24.88
2023-05-21T20:02:42.510Z,24.88
2023-05-21T20:05:14.616Z,24.79
2023-05-21T20:07:46.751Z,24.74
2023-05-21T20:10:18.837Z,24.67
2023-05-21T20:12:50.844Z,24.63
2023-05-21T20:15:22.826Z,24.65
2023-05-21T20:17:55.961Z,24.57
2023-05-21T20:20:28.018Z,24.54
2023-05-21T20:23:03.253Z,24.48
2023-05-21T20:25:35.241Z,24.44
2023-05-21T20:28:08.607Z,24.42
2023-05-21T20:30:58.942Z,24.29
2023-05-21T20:33:33.242Z,24.30
2023-05-21T20:36:05.573Z,24.29
2023-05-21T20:38:38.237Z,24.29
2023-05-21T20:41:10.437Z,24.26
2023-05-21T20:43:45.287Z,24.21
2023-05-21T20:46:17.557Z,24.11
2023-05-21T20:48:49.755Z,24.06
2023-05-21T20:51:21.812Z,24.03
2023-05-21T20:53:53.939Z,24.04
2023-05-21T20:56:40.659Z,23.96
2023-05-21T20:59:13.840Z,23.89
2023-05-21T21:01:46.021Z,23.84
2023-05-21T21:04:19.110Z,23.66
2023-05-21T21:06:51.980Z,23.72
2023-05-21T21:09:23.940Z,23.63
2023-05-21T21:11:56.320Z,23.52
2023-05-21T21:14:29.868Z,23.47
2023-05-21T21:17:02.888Z,23.41
2023-05-21T21:19:35.484Z,23.40
2023-05-21T21:22:07.566Z,23.25
2023-05-21T21:24:39.652Z,23.18
2023-05-21T21:27:11.598Z,23.25
2023-05-21T21:29:44.228Z,23.23
2023-05-21T21:32:16.371Z,23.20
2023-05-21T21:34:48.829Z,23.20
2023-05-21T21:37:20.883Z,23.21
2023-05-21T21:39:53.354Z,23.19
2023-05-21T21:42:25.518Z,23.14
2023-05-21T21:44:57.557Z,23.06
2023-05-21T21:47:29.702Z,23.01
2023-05-21T21:50:01.749Z,22.98
2023-05-21T21:52:33.728Z,22.98
2023-05-21T21:55:10.484Z,22.96
2023-05-21T21:57:42.419Z,22.93
2023-05-21T22:00:17.556Z,22.92
2023-05-21T22:02:49.614Z,22.88
2023-05-21T22:05:21.670Z,22.93
2023-05-21T22:07:53.707Z,22.89
2023-05-21T22:10:25.911Z,22.73
2023-05-21T22:12:57.887Z,23.04
2023-05-21T22:15:32.156Z,22.80
2023-05-21T22:18:04.614Z,22.70
2023-05-21T22:20:38.299Z,22.69
2023-05-21T22:23:10.479Z,22.68
2023-05-21T22:25:42.498Z,22.59
2023-05-21T22:28:14.502Z,22.68
2023-05-21T22:30:46.506Z,22.64
2023-05-21T22:33:18.699Z,22.62
2023-05-21T22:35:51.044Z,22.57
2023-05-21T22:38:23.023Z,22.56
2023-05-21T22:40:55.245Z,22.52
2023-05-21T22:43:27.467Z,22.53
2023-05-21T22:45:59.654Z,22.53
2023-05-21T22:48:31.714Z,22.52
2023-05-21T22:51:04.729Z,22.48
2023-05-21T22:53:36.732Z,22.39
2023-05-21T22:56:08.895Z,22.39
2023-05-21T22:58:41.191Z,22.40
2023-05-21T23:01:13.278Z,22.37
2023-05-21T23:03:45.266Z,22.29
2023-05-21T23:06:17.301Z,22.28
2023-05-21T23:08:49.241Z,22.24
2023-05-21T23:11:21.358Z,22.08
2023-05-21T23:13:53.419Z,22.20
2023-05-21T23:16:25.554Z,22.14
2023-05-21T23:18:57.960Z,22.06
2023-05-21T23:21:30.098Z,22.08
2023-05-21T23:24:02.092Z,22.07
2023-05-21T23:26:34.888Z,22.05
2023-05-21T23:29:06.848Z,21.99
2023-05-21T23:31:39.084Z,21.93
2023-05-21T23:34:11.050Z,21.89
2023-05-21T23:36:43.156Z,21.82
2023-05-21T23:39:15.093Z,21.76
2023-05-21T23:41:47.325Z,21.71
2023-05-21T23:44:20.341Z,21.65
2023-05-21T23:46:52.374Z,21.64
2023-05-21T23:49:24.326Z,21.46
2023-05-21T23:51:56.679Z,21.55
2023-05-21T23:54:28.630Z,21.52
2023-05-21T23:57:00.934Z,21.46
2023-05-21T23:59:32.977Z,21.47
